sensor_id;sensor_type;location;lat;lon;timestamp;temperature;humidity
31759;DHT22;36334;51.366;0.020;2022-11-15T00:00:13;10.70;99.90
31759;DHT22;36334;51.366;0.020;2022-11-15T00:03:23;10.60;99.90
31759;DHT22;36334;51.366;0.020;2022-11-15T00:06:28;10.60;99.90
31759;DHT22;36334;51.366;0.020;2022-11-15T00:09:32;10.50;99.90
31759;DHT22;36334;51.366;0.020;2022-11-15T00:12:37;10.50;99.90
31759;DHT22;36334;51.366;0.020;2022-11-15T00:15:42;10.50;99.90
31759;DHT22;36334;51.366;0.020;2022-11-15T00:18:47;10.40;99.90
31759;DHT22;36334;51.366;0.020;2022-11-15T00:21:54;10.40;99.90
31759;DHT22;36334;51.366;0.020;2022-11-15T00:24:59;10.40;99.90
31759;DHT22;36334;51.366;0.020;2022-11-15T00:28:04;10.30;99.90
31759;DHT22;36334;51.366;0.020;2022-11-15T00:31:09;10.30;99.90
31759;DHT22;36334;51.366;0.020;2022-11-15T00:34:15;10.30;99.90
31759;DHT22;36334;51.366;0.020;2022-11-15T00:37:20;10.20;99.90
31759;DHT22;36334;51.366;0.020;2022-11-15T00:40:25;10.20;99.90
31759;DHT22;36334;51.366;0.020;2022-11-15T00:43:30;10.20;99.90
31759;DHT22;36334;51.366;0.020;2022-11-15T00:46:37;10.20;99.90
31759;DHT22;36334;51.366;0.020;2022-11-15T00:49:42;10.20;99.90
31759;DHT22;36334;51.366;0.020;2022-11-15T00:52:47;10.20;99.90
31759;DHT22;36334;51.366;0.020;2022-11-15T00:55:52;10.20;99.90
31759;DHT22;36334;51.366;0.020;2022-11-15T00:58:57;10.30;99.90
31759;DHT22;36334;51.366;0.020;2022-11-15T01:02:02;10.30;99.90
31759;DHT22;36334;51.366;0.020;2022-11-15T01:05:08;10.30;99.90
31759;DHT22;36334;51.366;0.020;2022-11-15T01:08:16;10.30;99.90
31759;DHT22;36334;51.366;0.020;2022-11-15T01:11:20;10.30;99.90
31759;DHT22;36334;51.366;0.020;2022-11-15T01:14:25;10.30;99.90
31759;DHT22;36334;51.366;0.020;2022-11-15T01:17:30;10.30;99.90
31759;DHT22;36334;51.366;0.020;2022-11-15T01:20:40;10.40;99.90
31759;DHT22;36334;51.366;0.020;2022-11-15T01:23:46;10.30;99.90
31759;DHT22;36334;51.366;0.020;2022-11-15T01:26:51;10.30;99.90
31759;DHT22;36334;51.366;0.020;2022-11-15T01:29:55;10.30;99.90
31759;DHT22;36334;51.366;0.020;2022-11-15T01:33:00;10.30;99.90
31759;DHT22;36334;51.366;0.020;2022-11-15T01:36:05;10.30;99.90
31759;DHT22;36334;51.366;0.020;2022-11-15T01:39:09;10.30;99.90
31759;DHT22;36334;51.366;0.020;2022-11-15T01:42:15;10.30;99.90
31759;DHT22;36334;51.366;0.020;2022-11-15T01:45:19;10.30;99.90
31759;DHT22;36334;51.366;0.020;2022-11-15T01:48:31;10.20;99.90
31759;DHT22;36334;51.366;0.020;2022-11-15T01:51:36;10.20;99.90
31759;DHT22;36334;51.366;0.020;2022-11-15T01:54:42;10.20;99.90
31759;DHT22;36334;51.366;0.020;2022-11-15T01:57:54;10.10;99.90
31759;DHT22;36334;51.366;0.020;2022-11-15T02:00:59;10.10;99.90
31759;DHT22;36334;51.366;0.020;2022-11-15T02:04:11;10.00;99.90
31759;DHT22;36334;51.366;0.020;2022-11-15T02:07:18;10.00;99.90
31759;DHT22;36334;51.366;0.020;2022-11-15T02:10:24;10.00;99.90
31759;DHT22;36334;51.366;0.020;2022-11-15T02:13:29;10.00;99.90
31759;DHT22;36334;51.366;0.020;2022-11-15T02:16:37;10.00;99.90
31759;DHT22;36334;51.366;0.020;2022-11-15T02:23:30;10.00;99.90
31759;DHT22;36334;51.366;0.020;2022-11-15T02:30:22;10.10;99.90
31759;DHT22;36334;51.366;0.020;2022-11-15T02:33:43;10.10;99.90
31759;DHT22;36334;51.366;0.020;2022-11-15T02:41:07;10.20;99.90
31759;DHT22;36334;51.366;0.020;2022-11-15T02:43:56;10.20;99.90
31759;DHT22;36334;51.366;0.020;2022-11-15T02:47:06;10.10;99.90
31759;DHT22;36334;51.366;0.020;2022-11-15T02:50:21;10.10;99.90
31759;DHT22;36334;51.366;0.020;2022-11-15T02:53:28;10.10;99.90
31759;DHT22;36334;51.366;0.020;2022-11-15T02:56:33;10.10;99.90
31759;DHT22;36334;51.366;0.020;2022-11-15T03:12:57;10.10;99.90
31759;DHT22;36334;51.366;0.020;2022-11-15T03:16:09;10.20;99.90
31759;DHT22;36334;51.366;0.020;2022-11-15T03:19:18;10.20;99.90
31759;DHT22;36334;51.366;0.020;2022-11-15T03:22:28;10.30;99.90
31759;DHT22;36334;51.366;0.020;2022-11-15T03:25:36;10.40;99.90
31759;DHT22;36334;51.366;0.020;2022-11-15T03:28:52;10.40;99.90
31759;DHT22;36334;51.366;0.020;2022-11-15T03:32:01;10.40;99.90
31759;DHT22;36334;51.366;0.020;2022-11-15T03:35:10;10.50;99.90
31759;DHT22;36334;51.366;0.020;2022-11-15T03:38:26;10.50;99.90
31759;DHT22;36334;51.366;0.020;2022-11-15T03:41:48;10.60;99.90
31759;DHT22;36334;51.366;0.020;2022-11-15T03:45:22;10.60;99.90
31759;DHT22;36334;51.366;0.020;2022-11-15T03:48:43;10.70;99.90
31759;DHT22;36334;51.366;0.020;2022-11-15T03:51:49;10.70;99.90
31759;DHT22;36334;51.366;0.020;2022-11-15T03:54:56;10.70;99.90
31759;DHT22;36334;51.366;0.020;2022-11-15T03:58:01;10.70;99.90
31759;DHT22;36334;51.366;0.020;2022-11-15T04:01:05;10.70;99.90
31759;DHT22;36334;51.366;0.020;2022-11-15T04:04:11;10.80;99.90
31759;DHT22;36334;51.366;0.020;2022-11-15T04:07:15;10.80;99.90
31759;DHT22;36334;51.366;0.020;2022-11-15T04:10:21;10.80;99.90
31759;DHT22;36334;51.366;0.020;2022-11-15T04:13:26;10.80;99.90
31759;DHT22;36334;51.366;0.020;2022-11-15T04:16:31;10.80;99.90
31759;DHT22;36334;51.366;0.020;2022-11-15T04:19:35;10.90;99.90
31759;DHT22;36334;51.366;0.020;2022-11-15T04:23:00;10.90;99.90
31759;DHT22;36334;51.366;0.020;2022-11-15T04:26:23;10.90;99.90
31759;DHT22;36334;51.366;0.020;2022-11-15T04:29:28;10.90;99.90
31759;DHT22;36334;51.366;0.020;2022-11-15T04:32:39;10.90;99.90
31759;DHT22;36334;51.366;0.020;2022-11-15T04:35:44;10.90;99.90
31759;DHT22;36334;51.366;0.020;2022-11-15T04:39:09;11.00;99.90
31759;DHT22;36334;51.366;0.020;2022-11-15T04:42:14;11.00;99.90
31759;DHT22;36334;51.366;0.020;2022-11-15T04:45:19;11.10;99.90
31759;DHT22;36334;51.366;0.020;2022-11-15T04:48:23;11.10;99.90
31759;DHT22;36334;51.366;0.020;2022-11-15T04:51:28;11.20;99.90
31759;DHT22;36334;51.366;0.020;2022-11-15T04:54:33;11.30;99.90
31759;DHT22;36334;51.366;0.020;2022-11-15T04:57:38;11.30;99.90
31759;DHT22;36334;51.366;0.020;2022-11-15T05:00:43;11.40;99.90
31759;DHT22;36334;51.366;0.020;2022-11-15T05:03:47;11.50;99.90
31759;DHT22;36334;51.366;0.020;2022-11-15T05:07:11;11.60;99.90
31759;DHT22;36334;51.366;0.020;2022-11-15T05:10:17;11.70;99.90
31759;DHT22;36334;51.366;0.020;2022-11-15T05:13:30;11.70;99.90
31759;DHT22;36334;51.366;0.020;2022-11-15T05:16:36;11.80;99.90
31759;DHT22;36334;51.366;0.020;2022-11-15T05:19:40;11.80;99.90
31759;DHT22;36334;51.366;0.020;2022-11-15T05:22:45;11.90;99.90
31759;DHT22;36334;51.366;0.020;2022-11-15T05:25:50;11.90;99.90
31759;DHT22;36334;51.366;0.020;2022-11-15T05:28:57;12.00;99.90
31759;DHT22;36334;51.366;0.020;2022-11-15T05:32:05;12.10;99.90
31759;DHT22;36334;51.366;0.020;2022-11-15T05:35:18;12.10;99.90
31759;DHT22;36334;51.366;0.020;2022-11-15T05:38:24;12.10;99.90
31759;DHT22;36334;51.366;0.020;2022-11-15T05:41:36;12.10;99.90
31759;DHT22;36334;51.366;0.020;2022-11-15T05:44:45;12.20;99.90
31759;DHT22;36334;51.366;0.020;2022-11-15T05:47:53;12.20;99.90
31759;DHT22;36334;51.366;0.020;2022-11-15T05:51:03;12.20;99.90
31759;DHT22;36334;51.366;0.020;2022-11-15T05:54:10;12.20;99.90
31759;DHT22;36334;51.366;0.020;2022-11-15T05:57:15;12.20;99.90
31759;DHT22;36334;51.366;0.020;2022-11-15T06:00:21;12.20;99.90
31759;DHT22;36334;51.366;0.020;2022-11-15T06:03:25;12.20;99.90
31759;DHT22;36334;51.366;0.020;2022-11-15T06:06:31;12.20;99.90
31759;DHT22;36334;51.366;0.020;2022-11-15T06:09:35;12.30;99.90
31759;DHT22;36334;51.366;0.020;2022-11-15T06:12:40;12.20;99.90
31759;DHT22;36334;51.366;0.020;2022-11-15T06:15:45;12.30;99.90
31759;DHT22;36334;51.366;0.020;2022-11-15T06:18:50;12.20;99.90
31759;DHT22;36334;51.366;0.020;2022-11-15T06:21:55;12.20;99.90
31759;DHT22;36334;51.366;0.020;2022-11-15T06:24:59;12.20;99.90
31759;DHT22;36334;51.366;0.020;2022-11-15T06:28:09;12.20;99.90
31759;DHT22;36334;51.366;0.020;2022-11-15T06:31:13;12.20;99.90
31759;DHT22;36334;51.366;0.020;2022-11-15T06:34:18;12.20;99.90
31759;DHT22;36334;51.366;0.020;2022-11-15T06:37:23;12.30;99.90
31759;DHT22;36334;51.366;0.020;2022-11-15T06:40:28;12.30;99.90
31759;DHT22;36334;51.366;0.020;2022-11-15T06:43:34;12.30;99.90
31759;DHT22;36334;51.366;0.020;2022-11-15T06:46:39;12.30;99.90
31759;DHT22;36334;51.366;0.020;2022-11-15T06:49:43;12.30;99.90
31759;DHT22;36334;51.366;0.020;2022-11-15T06:52:47;12.30;99.90
31759;DHT22;36334;51.366;0.020;2022-11-15T06:55:52;12.40;99.90
31759;DHT22;36334;51.366;0.020;2022-11-15T06:58:59;12.30;99.90
31759;DHT22;36334;51.366;0.020;2022-11-15T07:02:04;12.30;99.90
31759;DHT22;36334;51.366;0.020;2022-11-15T07:05:09;12.30;99.90
31759;DHT22;36334;51.366;0.020;2022-11-15T07:08:14;12.30;99.90
31759;DHT22;36334;51.366;0.020;2022-11-15T07:11:19;12.20;99.90
31759;DHT22;36334;51.366;0.020;2022-11-15T07:14:24;12.20;99.90
31759;DHT22;36334;51.366;0.020;2022-11-15T07:17:29;12.20;99.90
31759;DHT22;36334;51.366;0.020;2022-11-15T07:20:34;12.30;99.90
31759;DHT22;36334;51.366;0.020;2022-11-15T07:23:39;12.20;99.90
31759;DHT22;36334;51.366;0.020;2022-11-15T07:26:44;12.20;99.90
31759;DHT22;36334;51.366;0.020;2022-11-15T07:29:49;12.10;99.90
31759;DHT22;36334;51.366;0.020;2022-11-15T07:32:55;12.20;99.90
31759;DHT22;36334;51.366;0.020;2022-11-15T07:36:04;12.20;99.90
31759;DHT22;36334;51.366;0.020;2022-11-15T07:39:10;12.20;99.90
31759;DHT22;36334;51.366;0.020;2022-11-15T07:42:16;12.20;99.90
31759;DHT22;36334;51.366;0.020;2022-11-15T07:45:41;12.20;99.90
31759;DHT22;36334;51.366;0.020;2022-11-15T07:48:46;12.10;99.90
31759;DHT22;36334;51.366;0.020;2022-11-15T07:51:51;12.10;99.90
31759;DHT22;36334;51.366;0.020;2022-11-15T07:54:56;12.10;99.90
31759;DHT22;36334;51.366;0.020;2022-11-15T07:58:05;12.00;99.90
31759;DHT22;36334;51.366;0.020;2022-11-15T08:01:10;11.90;99.90
31759;DHT22;36334;51.366;0.020;2022-11-15T08:04:16;11.90;99.90
31759;DHT22;36334;51.366;0.020;2022-11-15T08:07:20;11.90;99.90
31759;DHT22;36334;51.366;0.020;2022-11-15T08:10:27;11.80;99.90
31759;DHT22;36334;51.366;0.020;2022-11-15T08:13:32;11.80;99.90
31759;DHT22;36334;51.366;0.020;2022-11-15T08:16:37;11.80;99.90
31759;DHT22;36334;51.366;0.020;2022-11-15T08:19:42;11.80;99.90
31759;DHT22;36334;51.366;0.020;2022-11-15T08:22:47;11.80;99.90
31759;DHT22;36334;51.366;0.020;2022-11-15T08:25:52;11.70;99.90
31759;DHT22;36334;51.366;0.020;2022-11-15T08:28:57;11.70;99.90
31759;DHT22;36334;51.366;0.020;2022-11-15T08:32:02;11.80;99.90
31759;DHT22;36334;51.366;0.020;2022-11-15T08:35:07;11.80;99.90
31759;DHT22;36334;51.366;0.020;2022-11-15T08:38:12;11.80;99.90
31759;DHT22;36334;51.366;0.020;2022-11-15T08:41:26;11.80;99.90
31759;DHT22;36334;51.366;0.020;2022-11-15T08:44:32;11.80;99.90
31759;DHT22;36334;51.366;0.020;2022-11-15T08:47:37;11.80;99.90
31759;DHT22;36334;51.366;0.020;2022-11-15T08:50:41;11.80;99.90
31759;DHT22;36334;51.366;0.020;2022-11-15T08:53:52;11.80;99.90
31759;DHT22;36334;51.366;0.020;2022-11-15T08:56:58;11.90;99.90
31759;DHT22;36334;51.366;0.020;2022-11-15T09:00:03;11.90;99.90
31759;DHT22;36334;51.366;0.020;2022-11-15T09:03:09;11.90;99.90
31759;DHT22;36334;51.366;0.020;2022-11-15T09:06:14;12.00;99.90
31759;DHT22;36334;51.366;0.020;2022-11-15T09:09:19;12.00;99.90
31759;DHT22;36334;51.366;0.020;2022-11-15T09:12:24;12.10;99.90
31759;DHT22;36334;51.366;0.020;2022-11-15T09:15:30;12.10;99.90
31759;DHT22;36334;51.366;0.020;2022-11-15T09:18:34;12.10;99.90
31759;DHT22;36334;51.366;0.020;2022-11-15T09:21:40;12.20;99.90
31759;DHT22;36334;51.366;0.020;2022-11-15T09:24:44;12.20;99.90
31759;DHT22;36334;51.366;0.020;2022-11-15T09:27:49;12.20;99.90
31759;DHT22;36334;51.366;0.020;2022-11-15T09:30:58;12.20;99.90
31759;DHT22;36334;51.366;0.020;2022-11-15T09:34:03;12.20;99.90
31759;DHT22;36334;51.366;0.020;2022-11-15T09:37:11;12.30;99.90
31759;DHT22;36334;51.366;0.020;2022-11-15T09:40:17;12.30;99.90
31759;DHT22;36334;51.366;0.020;2022-11-15T09:50:39;12.20;99.90
31759;DHT22;36334;51.366;0.020;2022-11-15T09:53:44;12.20;99.90
31759;DHT22;36334;51.366;0.020;2022-11-15T09:56:53;12.20;99.90
31759;DHT22;36334;51.366;0.020;2022-11-15T10:05:47;12.20;99.90
31759;DHT22;36334;51.366;0.020;2022-11-15T10:08:43;12.20;99.90
31759;DHT22;36334;51.366;0.020;2022-11-15T10:11:32;12.30;99.90
31759;DHT22;36334;51.366;0.020;2022-11-15T10:14:26;12.30;99.90
31759;DHT22;36334;51.366;0.020;2022-11-15T10:17:41;12.30;99.90
31759;DHT22;36334;51.366;0.020;2022-11-15T10:20:50;12.30;99.90
31759;DHT22;36334;51.366;0.020;2022-11-15T10:23:38;12.30;99.90
31759;DHT22;36334;51.366;0.020;2022-11-15T10:26:24;12.30;99.90
31759;DHT22;36334;51.366;0.020;2022-11-15T10:29:10;12.30;99.90
31759;DHT22;36334;51.366;0.020;2022-11-15T10:31:56;12.30;99.90
31759;DHT22;36334;51.366;0.020;2022-11-15T10:34:42;12.40;99.90
31759;DHT22;36334;51.366;0.020;2022-11-15T10:37:30;12.40;99.90
31759;DHT22;36334;51.366;0.020;2022-11-15T10:40:21;12.40;99.90
31759;DHT22;36334;51.366;0.020;2022-11-15T10:43:16;12.40;99.90
31759;DHT22;36334;51.366;0.020;2022-11-15T10:46:19;12.40;99.90
31759;DHT22;36334;51.366;0.020;2022-11-15T10:49:30;12.40;99.90
31759;DHT22;36334;51.366;0.020;2022-11-15T10:52:20;12.40;99.90
31759;DHT22;36334;51.366;0.020;2022-11-15T10:58:06;12.50;99.90
31759;DHT22;36334;51.366;0.020;2022-11-15T11:01:25;12.50;99.90
31759;DHT22;36334;51.366;0.020;2022-11-15T11:04:11;12.50;99.90
31759;DHT22;36334;51.366;0.020;2022-11-15T11:06:59;12.60;99.90
31759;DHT22;36334;51.366;0.020;2022-11-15T11:13:38;12.60;99.90
31759;DHT22;36334;51.366;0.020;2022-11-15T11:16:41;12.60;99.90
31759;DHT22;36334;51.366;0.020;2022-11-15T11:32:23;12.70;99.90
31759;DHT22;36334;51.366;0.020;2022-11-15T11:38:50;12.70;99.90
31759;DHT22;36334;51.366;0.020;2022-11-15T11:41:53;12.70;99.90
31759;DHT22;36334;51.366;0.020;2022-11-15T11:44:54;12.60;99.90
31759;DHT22;36334;51.366;0.020;2022-11-15T11:47:55;12.60;99.90
31759;DHT22;36334;51.366;0.020;2022-11-15T11:50:45;12.60;99.90
31759;DHT22;36334;51.366;0.020;2022-11-15T11:53:37;12.60;99.90
31759;DHT22;36334;51.366;0.020;2022-11-15T11:56:32;12.60;99.90
31759;DHT22;36334;51.366;0.020;2022-11-15T11:59:28;12.60;99.90
31759;DHT22;36334;51.366;0.020;2022-11-15T12:02:27;12.60;99.90
31759;DHT22;36334;51.366;0.020;2022-11-15T12:05:32;12.60;99.90
31759;DHT22;36334;51.366;0.020;2022-11-15T12:08:28;12.60;99.90
31759;DHT22;36334;51.366;0.020;2022-11-15T12:14:54;12.60;99.90
31759;DHT22;36334;51.366;0.020;2022-11-15T12:17:41;12.60;99.90
31759;DHT22;36334;51.366;0.020;2022-11-15T12:20:32;12.60;99.90
31759;DHT22;36334;51.366;0.020;2022-11-15T12:23:25;12.60;99.90
31759;DHT22;36334;51.366;0.020;2022-11-15T12:26:23;12.60;99.90
31759;DHT22;36334;51.366;0.020;2022-11-15T12:29:18;12.60;99.90
31759;DHT22;36334;51.366;0.020;2022-11-15T12:32:28;12.60;99.90
31759;DHT22;36334;51.366;0.020;2022-11-15T12:47:37;12.70;99.90
31759;DHT22;36334;51.366;0.020;2022-11-15T12:50:56;12.70;99.90
31759;DHT22;36334;51.366;0.020;2022-11-15T12:53:44;12.80;99.90
31759;DHT22;36334;51.366;0.020;2022-11-15T12:56:31;12.80;99.90
31759;DHT22;36334;51.366;0.020;2022-11-15T12:59:53;12.80;99.90
31759;DHT22;36334;51.366;0.020;2022-11-15T13:02:49;12.80;99.90
31759;DHT22;36334;51.366;0.020;2022-11-15T13:08:43;12.90;99.90
31759;DHT22;36334;51.366;0.020;2022-11-15T13:11:44;12.90;99.90
31759;DHT22;36334;51.366;0.020;2022-11-15T13:14:41;12.90;99.90
31759;DHT22;36334;51.366;0.020;2022-11-15T13:17:43;12.90;99.90
31759;DHT22;36334;51.366;0.020;2022-11-15T13:20:31;12.90;99.90
31759;DHT22;36334;51.366;0.020;2022-11-15T13:23:18;12.90;99.90
31759;DHT22;36334;51.366;0.020;2022-11-15T13:26:13;12.90;99.90
31759;DHT22;36334;51.366;0.020;2022-11-15T13:29:00;13.10;99.90
31759;DHT22;36334;51.366;0.020;2022-11-15T13:31:47;13.10;99.90
31759;DHT22;36334;51.366;0.020;2022-11-15T13:34:34;13.10;99.90
31759;DHT22;36334;51.366;0.020;2022-11-15T13:37:36;13.20;99.90
31759;DHT22;36334;51.366;0.020;2022-11-15T13:40:28;13.30;99.90
31759;DHT22;36334;51.366;0.020;2022-11-15T13:46:14;13.60;99.90
31759;DHT22;36334;51.366;0.020;2022-11-15T13:49:10;13.70;99.90
31759;DHT22;36334;51.366;0.020;2022-11-15T13:52:01;13.80;99.90
31759;DHT22;36334;51.366;0.020;2022-11-15T13:55:02;13.80;99.90
31759;DHT22;36334;51.366;0.020;2022-11-15T13:57:55;13.90;99.90
31759;DHT22;36334;51.366;0.020;2022-11-15T14:00:44;13.90;99.90
31759;DHT22;36334;51.366;0.020;2022-11-15T14:03:37;13.90;99.90
31759;DHT22;36334;51.366;0.020;2022-11-15T14:06:28;13.90;99.90
31759;DHT22;36334;51.366;0.020;2022-11-15T14:09:36;14.00;99.90
31759;DHT22;36334;51.366;0.020;2022-11-15T14:15:47;14.10;99.90
31759;DHT22;36334;51.366;0.020;2022-11-15T14:21:32;14.30;99.90
31759;DHT22;36334;51.366;0.020;2022-11-15T14:24:21;14.40;99.90
31759;DHT22;36334;51.366;0.020;2022-11-15T14:27:36;14.40;99.90
31759;DHT22;36334;51.366;0.020;2022-11-15T14:30:22;14.50;99.90
31759;DHT22;36334;51.366;0.020;2022-11-15T14:33:37;14.50;99.90
31759;DHT22;36334;51.366;0.020;2022-11-15T14:36:24;14.40;99.90
31759;DHT22;36334;51.366;0.020;2022-11-15T14:39:11;14.40;99.90
31759;DHT22;36334;51.366;0.020;2022-11-15T14:41:57;14.30;99.90
31759;DHT22;36334;51.366;0.020;2022-11-15T14:44:43;14.30;99.90
31759;DHT22;36334;51.366;0.020;2022-11-15T14:47:31;14.30;99.90
31759;DHT22;36334;51.366;0.020;2022-11-15T14:50:19;14.30;99.90
31759;DHT22;36334;51.366;0.020;2022-11-15T14:53:12;14.20;99.90
31759;DHT22;36334;51.366;0.020;2022-11-15T14:55:59;14.20;99.90
31759;DHT22;36334;51.366;0.020;2022-11-15T14:58:47;14.20;99.90
31759;DHT22;36334;51.366;0.020;2022-11-15T15:01:33;14.10;99.90
31759;DHT22;36334;51.366;0.020;2022-11-15T15:04:19;14.00;99.90
31759;DHT22;36334;51.366;0.020;2022-11-15T15:07:05;13.80;99.90
31759;DHT22;36334;51.366;0.020;2022-11-15T15:09:54;13.70;99.90
31759;DHT22;36334;51.366;0.020;2022-11-15T15:13:00;13.60;99.90
31759;DHT22;36334;51.366;0.020;2022-11-15T15:15:46;13.60;99.90
31759;DHT22;36334;51.366;0.020;2022-11-15T15:18:32;13.50;99.90
31759;DHT22;36334;51.366;0.020;2022-11-15T15:21:22;13.40;99.90
31759;DHT22;36334;51.366;0.020;2022-11-15T15:24:14;13.40;99.90
31759;DHT22;36334;51.366;0.020;2022-11-15T15:27:03;13.30;99.90
31759;DHT22;36334;51.366;0.020;2022-11-15T15:29:52;13.20;99.90
31759;DHT22;36334;51.366;0.020;2022-11-15T15:32:39;13.10;99.90
31759;DHT22;36334;51.366;0.020;2022-11-15T15:35:30;12.90;99.90
31759;DHT22;36334;51.366;0.020;2022-11-15T15:38:16;12.90;99.90
31759;DHT22;36334;51.366;0.020;2022-11-15T15:41:02;12.80;99.90
31759;DHT22;36334;51.366;0.020;2022-11-15T15:43:49;12.70;99.90
31759;DHT22;36334;51.366;0.020;2022-11-15T15:46:35;12.60;99.90
31759;DHT22;36334;51.366;0.020;2022-11-15T15:49:21;12.50;99.90
31759;DHT22;36334;51.366;0.020;2022-11-15T15:52:07;12.50;99.90
31759;DHT22;36334;51.366;0.020;2022-11-15T15:54:53;12.40;99.90
31759;DHT22;36334;51.366;0.020;2022-11-15T15:57:47;12.30;99.90
31759;DHT22;36334;51.366;0.020;2022-11-15T16:00:34;12.30;99.90
31759;DHT22;36334;51.366;0.020;2022-11-15T16:03:20;12.20;99.90
31759;DHT22;36334;51.366;0.020;2022-11-15T16:06:47;12.10;99.90
31759;DHT22;36334;51.366;0.020;2022-11-15T16:09:32;12.10;99.90
31759;DHT22;36334;51.366;0.020;2022-11-15T16:12:36;12.00;99.90
31759;DHT22;36334;51.366;0.020;2022-11-15T16:15:25;12.00;99.90
31759;DHT22;36334;51.366;0.020;2022-11-15T16:18:16;11.90;99.90
31759;DHT22;36334;51.366;0.020;2022-11-15T16:21:02;11.90;99.90
31759;DHT22;36334;51.366;0.020;2022-11-15T16:23:48;11.90;99.90
31759;DHT22;36334;51.366;0.020;2022-11-15T16:26:35;11.90;99.90
31759;DHT22;36334;51.366;0.020;2022-11-15T16:29:22;11.90;99.90
31759;DHT22;36334;51.366;0.020;2022-11-15T16:32:08;11.90;99.90
31759;DHT22;36334;51.366;0.020;2022-11-15T16:34:54;11.80;99.90
31759;DHT22;36334;51.366;0.020;2022-11-15T16:37:42;11.80;99.90
31759;DHT22;36334;51.366;0.020;2022-11-15T16:40:33;11.80;99.90
31759;DHT22;36334;51.366;0.020;2022-11-15T16:43:19;11.70;99.90
31759;DHT22;36334;51.366;0.020;2022-11-15T16:46:22;11.70;99.90
31759;DHT22;36334;51.366;0.020;2022-11-15T16:49:12;11.70;99.90
31759;DHT22;36334;51.366;0.020;2022-11-15T16:52:00;11.60;99.90
31759;DHT22;36334;51.366;0.020;2022-11-15T16:54:46;11.60;99.90
31759;DHT22;36334;51.366;0.020;2022-11-15T16:57:32;11.60;99.90
31759;DHT22;36334;51.366;0.020;2022-11-15T17:00:19;11.60;99.90
31759;DHT22;36334;51.366;0.020;2022-11-15T17:03:05;11.50;99.90
31759;DHT22;36334;51.366;0.020;2022-11-15T17:05:52;11.50;99.90
31759;DHT22;36334;51.366;0.020;2022-11-15T17:08:43;11.50;99.90
31759;DHT22;36334;51.366;0.020;2022-11-15T17:11:29;11.40;99.90
31759;DHT22;36334;51.366;0.020;2022-11-15T17:14:15;11.50;99.90
31759;DHT22;36334;51.366;0.020;2022-11-15T17:17:02;11.40;99.90
31759;DHT22;36334;51.366;0.020;2022-11-15T17:19:48;11.40;99.90
31759;DHT22;36334;51.366;0.020;2022-11-15T17:22:36;11.30;99.90
31759;DHT22;36334;51.366;0.020;2022-11-15T17:25:22;11.30;99.90
31759;DHT22;36334;51.366;0.020;2022-11-15T17:28:11;11.30;99.90
31759;DHT22;36334;51.366;0.020;2022-11-15T17:30:58;11.20;99.90
31759;DHT22;36334;51.366;0.020;2022-11-15T17:33:44;11.30;99.90
31759;DHT22;36334;51.366;0.020;2022-11-15T17:36:30;11.40;99.90
31759;DHT22;36334;51.366;0.020;2022-11-15T17:39:16;11.40;99.90
31759;DHT22;36334;51.366;0.020;2022-11-15T17:42:04;11.40;99.90
31759;DHT22;36334;51.366;0.020;2022-11-15T17:44:50;11.50;99.90
31759;DHT22;36334;51.366;0.020;2022-11-15T17:47:36;11.50;99.90
31759;DHT22;36334;51.366;0.020;2022-11-15T17:50:22;11.50;99.90
31759;DHT22;36334;51.366;0.020;2022-11-15T17:53:08;11.50;99.90
31759;DHT22;36334;51.366;0.020;2022-11-15T17:55:54;11.50;99.90
31759;DHT22;36334;51.366;0.020;2022-11-15T17:58:55;11.50;99.90
31759;DHT22;36334;51.366;0.020;2022-11-15T18:01:42;11.50;99.90
31759;DHT22;36334;51.366;0.020;2022-11-15T18:04:28;11.50;99.90
31759;DHT22;36334;51.366;0.020;2022-11-15T18:07:14;11.50;99.90
31759;DHT22;36334;51.366;0.020;2022-11-15T18:10:00;11.50;99.90
31759;DHT22;36334;51.366;0.020;2022-11-15T18:12:47;11.50;99.90
31759;DHT22;36334;51.366;0.020;2022-11-15T18:15:33;11.40;99.90
31759;DHT22;36334;51.366;0.020;2022-11-15T18:18:19;11.40;99.90
31759;DHT22;36334;51.366;0.020;2022-11-15T18:21:08;11.40;99.90
31759;DHT22;36334;51.366;0.020;2022-11-15T18:23:59;11.40;99.90
31759;DHT22;36334;51.366;0.020;2022-11-15T18:26:45;11.40;99.90
31759;DHT22;36334;51.366;0.020;2022-11-15T18:29:32;11.30;99.90
31759;DHT22;36334;51.366;0.020;2022-11-15T18:32:20;11.20;99.90
31759;DHT22;36334;51.366;0.020;2022-11-15T18:35:09;11.20;99.90
31759;DHT22;36334;51.366;0.020;2022-11-15T18:37:55;11.20;99.90
31759;DHT22;36334;51.366;0.020;2022-11-15T18:40:41;11.10;99.90
31759;DHT22;36334;51.366;0.020;2022-11-15T18:43:27;11.10;99.90
31759;DHT22;36334;51.366;0.020;2022-11-15T18:46:15;11.00;99.90
31759;DHT22;36334;51.366;0.020;2022-11-15T18:49:01;10.90;99.90
31759;DHT22;36334;51.366;0.020;2022-11-15T18:51:48;10.90;99.90
31759;DHT22;36334;51.366;0.020;2022-11-15T18:54:34;10.80;99.90
31759;DHT22;36334;51.366;0.020;2022-11-15T18:57:20;10.80;99.90
31759;DHT22;36334;51.366;0.020;2022-11-15T19:00:06;10.70;99.90
31759;DHT22;36334;51.366;0.020;2022-11-15T19:02:54;10.70;99.90
31759;DHT22;36334;51.366;0.020;2022-11-15T19:05:39;10.70;99.90
31759;DHT22;36334;51.366;0.020;2022-11-15T19:08:25;10.60;99.90
31759;DHT22;36334;51.366;0.020;2022-11-15T19:11:20;10.60;99.90
31759;DHT22;36334;51.366;0.020;2022-11-15T19:14:16;10.60;99.90
31759;DHT22;36334;51.366;0.020;2022-11-15T19:17:03;10.50;99.90
31759;DHT22;36334;51.366;0.020;2022-11-15T19:19:49;10.50;99.90
31759;DHT22;36334;51.366;0.020;2022-11-15T19:22:35;10.40;99.90
31759;DHT22;36334;51.366;0.020;2022-11-15T19:25:21;10.30;99.90
31759;DHT22;36334;51.366;0.020;2022-11-15T19:28:09;10.20;99.90
31759;DHT22;36334;51.366;0.020;2022-11-15T19:31:14;10.10;99.90
31759;DHT22;36334;51.366;0.020;2022-11-15T19:34:01;10.00;99.90
31759;DHT22;36334;51.366;0.020;2022-11-15T19:36:49;9.90;99.90
31759;DHT22;36334;51.366;0.020;2022-11-15T19:39:35;9.90;99.90
31759;DHT22;36334;51.366;0.020;2022-11-15T19:42:26;9.90;99.90
31759;DHT22;36334;51.366;0.020;2022-11-15T19:45:11;9.80;99.90
31759;DHT22;36334;51.366;0.020;2022-11-15T19:47:57;9.80;99.90
31759;DHT22;36334;51.366;0.020;2022-11-15T19:50:44;9.80;99.90
31759;DHT22;36334;51.366;0.020;2022-11-15T19:53:31;9.80;99.90
31759;DHT22;36334;51.366;0.020;2022-11-15T19:56:20;9.80;99.90
31759;DHT22;36334;51.366;0.020;2022-11-15T19:59:07;9.70;99.90
31759;DHT22;36334;51.366;0.020;2022-11-15T20:01:54;9.70;99.90
31759;DHT22;36334;51.366;0.020;2022-11-15T20:04:39;9.70;99.90
31759;DHT22;36334;51.366;0.020;2022-11-15T20:07:25;9.80;99.90
31759;DHT22;36334;51.366;0.020;2022-11-15T20:10:11;9.80;99.90
31759;DHT22;36334;51.366;0.020;2022-11-15T20:13:04;9.70;99.90
31759;DHT22;36334;51.366;0.020;2022-11-15T20:15:50;9.70;99.90
31759;DHT22;36334;51.366;0.020;2022-11-15T20:18:36;9.70;99.90